Terminal Aerodrome Forecast
Issued by NWS

Home | Current Version | Previous Version | Text Only | Print | Product List | Glossary On
Versions: 1 2 3 4 5 6 7 8 9 10 11 12 13 14 15 16 17 18
000
FTUS43 KSGF 030520
TAFBBG
TAF
KBBG 030520Z 0306/0406 30003KT P6SM BKN050
     FM030900 00000KT 5SM BR SKC
      TEMPO 0311/0314 2SM BR
     FM031500 32006KT P6SM SCT025
     FM031800 32008KT P6SM SCT045
     FM040100 VRB04KT P6SM FEW050=

USA.gov is the U.S. government's official web portal to all federal, state and local government web resources and services.